Albany, Ohio
Current Conditions -  °F | °C
As of 11:15 AM on Sunday 21 Dec 2014 (Local Time) from KUNI Reporting Station
Overcast Overcast  
Wind Chill: 33°   Ceiling: 2000
Heat Index: 33°   Visibility: 10mi
Dew Point: 24°   Wind: 3mph
Humidity: 70%   Direction: 90°E
Pressure: 30.31"   Gusts: NA
Location:  39.23°N, 82.2°W
Report Text: KUNI 211615Z AUTO 09003KT 10SM OVC020 01/M04 A3031 RMK AO2 T00081042
Loading
Personal Weather Stations






























Interactive Weather Map New forecast layout! Learn more

10-Day Weather Forecast

Advertisements
Track Severe Weather on mobile